createdAt,value
2023-05-17T00:02:21.427Z,75552.25
2023-05-17T00:04:49.371Z,75562.44
2023-05-17T00:07:18.535Z,75560.41
2023-05-17T00:09:46.353Z,75576.72
2023-05-17T00:12:14.180Z,75576.72
2023-05-17T00:14:42.140Z,75584.88
2023-05-17T00:17:09.891Z,75593.03
2023-05-17T00:19:37.797Z,75597.09
2023-05-17T00:22:05.925Z,75605.25
2023-05-17T00:24:35.078Z,75609.34
2023-05-17T00:27:02.892Z,75621.56
2023-05-17T00:29:30.669Z,75625.63
2023-05-17T00:31:58.438Z,75625.63
2023-05-17T00:34:26.272Z,75621.56
2023-05-17T00:36:54.041Z,75641.94
2023-05-17T00:39:21.870Z,75637.88
2023-05-17T00:41:51.197Z,75656.22
2023-05-17T00:44:18.950Z,75637.88
2023-05-17T00:46:47.779Z,75654.19
2023-05-17T00:49:15.703Z,75658.25
2023-05-17T00:51:43.788Z,75658.25
2023-05-17T00:54:11.961Z,75662.34
2023-05-17T00:56:40.163Z,75658.25
2023-05-17T00:59:10.030Z,75668.44
2023-05-17T01:01:41.361Z,75674.56
2023-05-17T01:04:09.548Z,75674.56
2023-05-17T01:06:37.609Z,75674.56
2023-05-17T01:09:06.447Z,75686.78
2023-05-17T01:11:43.661Z,75682.72
2023-05-17T01:14:27.631Z,75684.75
2023-05-17T01:16:58.024Z,75694.94
2023-05-17T01:19:46.394Z,75690.88
2023-05-17T01:22:24.249Z,75694.94
2023-05-17T01:24:59.572Z,75703.09
2023-05-17T01:27:31.208Z,75703.09
2023-05-17T01:29:59.398Z,75688.84
2023-05-17T01:32:28.464Z,75699.03
2023-05-17T01:34:56.383Z,75707.19
2023-05-17T01:37:24.203Z,75709.22
2023-05-17T01:39:52.086Z,75719.41
2023-05-17T01:42:23.095Z,75709.22
2023-05-17T01:45:01.055Z,75715.34
2023-05-17T01:47:34.473Z,75721.44
2023-05-17T01:50:04.986Z,75717.38
2023-05-17T01:52:38.842Z,75715.34
2023-05-17T01:55:11.711Z,75731.66
2023-05-17T01:57:44.293Z,75717.38
2023-05-17T02:00:15.328Z,75729.59
2023-05-17T02:02:43.354Z,75727.56
2023-05-17T02:05:11.268Z,75731.66
2023-05-17T02:07:39.594Z,75743.88
2023-05-17T02:10:08.446Z,75735.72
2023-05-17T02:12:36.215Z,75737.75
2023-05-17T02:15:04.252Z,75743.88
2023-05-17T02:17:33.465Z,75743.88
2023-05-17T02:20:01.337Z,75747.94
2023-05-17T02:22:29.150Z,75747.94
2023-05-17T02:24:56.919Z,75750.00
2023-05-17T02:27:24.694Z,75756.09
2023-05-17T02:29:52.425Z,75758.16
2023-05-17T02:32:20.271Z,75768.34
2023-05-17T02:34:49.408Z,75764.25
2023-05-17T02:37:17.174Z,75772.41
2023-05-17T02:39:45.000Z,75776.50
2023-05-17T02:42:12.896Z,75780.56
2023-05-17T02:44:41.048Z,75780.56
2023-05-17T02:47:08.943Z,75788.72
2023-05-17T02:49:36.786Z,75790.75
2023-05-17T02:52:06.341Z,75786.69
2023-05-17T02:54:34.519Z,75792.81
2023-05-17T02:57:02.944Z,75800.97
2023-05-17T02:59:30.743Z,75800.97
2023-05-17T03:01:58.542Z,75800.97
2023-05-17T03:04:26.326Z,75805.03
2023-05-17T03:06:54.099Z,75807.06
2023-05-17T03:09:23.667Z,75817.25
2023-05-17T03:11:51.594Z,75821.34
2023-05-17T03:14:19.384Z,75829.50
2023-05-17T03:16:47.196Z,75829.50
2023-05-17T03:19:15.461Z,75841.72
2023-05-17T03:21:43.365Z,75858.03
2023-05-17T03:24:11.180Z,75858.03
2023-05-17T03:26:40.349Z,75866.19
2023-05-17T03:29:08.109Z,75870.28
2023-05-17T03:31:36.025Z,75870.28
2023-05-17T03:34:03.854Z,75878.44
2023-05-17T03:36:32.259Z,75890.66
2023-05-17T03:39:00.069Z,75894.75
2023-05-17T03:41:27.924Z,75898.81
2023-05-17T03:43:57.010Z,75906.97
2023-05-17T03:46:24.826Z,75919.19
2023-05-17T03:48:52.694Z,75927.34
2023-05-17T03:51:20.562Z,75937.53
2023-05-17T03:53:48.504Z,75943.66
2023-05-17T03:56:18.101Z,75953.84
2023-05-17T03:58:46.014Z,75943.66
2023-05-17T04:01:15.221Z,75966.09
2023-05-17T04:03:43.050Z,75968.13
2023-05-17T04:06:10.896Z,75974.25
2023-05-17T04:08:38.699Z,75980.34
2023-05-17T04:11:10.543Z,75988.50
2023-05-17T04:13:38.763Z,75996.66
2023-05-17T04:16:07.516Z,75984.44
2023-05-17T04:18:38.010Z,75988.50
2023-05-17T04:21:06.938Z,75996.66
2023-05-17T04:23:35.237Z,75996.66
2023-05-17T04:26:04.243Z,76015.03
2023-05-17T04:28:32.432Z,76017.06
2023-05-17T04:31:00.209Z,76029.28
2023-05-17T04:33:28.095Z,76027.25
2023-05-17T04:35:57.661Z,76035.41
2023-05-17T04:38:25.513Z,76041.53
2023-05-17T04:40:53.264Z,76047.63
2023-05-17T04:43:21.085Z,76053.75
2023-05-17T04:45:50.226Z,76053.75
2023-05-17T04:48:19.984Z,76057.84
2023-05-17T04:50:48.096Z,76061.91
2023-05-17T04:53:17.220Z,76066.00
2023-05-17T04:55:44.992Z,76061.91
2023-05-17T04:58:13.063Z,76061.91
2023-05-17T05:00:41.093Z,76070.06
2023-05-17T05:03:08.973Z,76074.16
2023-05-17T05:05:36.841Z,76074.16
2023-05-17T05:08:04.775Z,76078.22
2023-05-17T05:10:33.894Z,76078.22
2023-05-17T05:13:01.721Z,76068.03
2023-05-17T05:15:30.814Z,76074.16
2023-05-17T05:17:58.755Z,76076.19
2023-05-17T05:20:27.941Z,76082.28
2023-05-17T05:22:58.435Z,76084.34
2023-05-17T05:25:26.321Z,76078.22
2023-05-17T05:27:55.730Z,76084.34
2023-05-17T05:30:23.607Z,76086.38
2023-05-17T05:32:51.519Z,76084.34
2023-05-17T05:35:19.716Z,76086.38
2023-05-17T05:37:47.482Z,76086.38
2023-05-17T05:40:15.802Z,76086.38
2023-05-17T05:42:43.642Z,76090.44
2023-05-17T05:45:13.461Z,76094.53
2023-05-17T05:47:41.310Z,76090.44
2023-05-17T05:50:10.631Z,76110.84
2023-05-17T05:52:38.673Z,76114.91
2023-05-17T05:55:07.285Z,76110.84
2023-05-17T05:57:35.782Z,76127.16
2023-05-17T06:00:04.842Z,76125.13
2023-05-17T06:02:34.914Z,76131.22
2023-05-17T06:05:03.868Z,76133.25
2023-05-17T06:07:31.628Z,76147.53
2023-05-17T06:09:59.359Z,76149.56
2023-05-17T06:12:27.305Z,76143.47
2023-05-17T06:14:55.090Z,76153.66
2023-05-17T06:17:22.874Z,76153.66
2023-05-17T06:19:52.681Z,76151.63
2023-05-17T06:22:20.558Z,76159.78
2023-05-17T06:24:48.400Z,76172.00
2023-05-17T06:27:16.232Z,76172.00
2023-05-17T06:29:44.018Z,76186.28
2023-05-17T06:32:20.647Z,76188.31
2023-05-17T06:34:48.463Z,76200.56
2023-05-17T06:37:17.679Z,76196.47
2023-05-17T06:39:55.634Z,76200.56
2023-05-17T06:42:27.642Z,76198.50
2023-05-17T06:44:55.825Z,76204.63
2023-05-17T06:47:23.650Z,76208.69
2023-05-17T06:49:51.668Z,76218.91
2023-05-17T06:52:20.861Z,76212.78
2023-05-17T06:54:48.636Z,76218.91
2023-05-17T06:57:16.437Z,76229.09
2023-05-17T06:59:44.397Z,76233.16
2023-05-17T07:02:12.212Z,76231.13
2023-05-17T07:04:40.432Z,76233.16
2023-05-17T07:07:08.306Z,76237.25
2023-05-17T07:09:37.424Z,76241.31
2023-05-17T07:12:06.537Z,76241.31
2023-05-17T07:14:34.364Z,76241.31
2023-05-17T07:17:02.301Z,76245.41
2023-05-17T07:19:30.200Z,76249.47
2023-05-17T07:21:58.115Z,76247.44
2023-05-17T07:24:25.990Z,76257.63
2023-05-17T07:26:55.166Z,76257.63
2023-05-17T07:29:23.057Z,76267.84
2023-05-17T07:31:50.874Z,76282.09
2023-05-17T07:34:18.783Z,76276.00
2023-05-17T07:36:46.667Z,76286.19
2023-05-17T07:39:14.468Z,76294.34
2023-05-17T07:41:42.239Z,76298.41
2023-05-17T07:44:11.427Z,76300.47
2023-05-17T07:46:39.285Z,76310.66
2023-05-17T07:49:09.489Z,76314.72
2023-05-17T07:51:37.712Z,76310.66
2023-05-17T07:54:05.977Z,76318.81
2023-05-17T07:56:34.829Z,76314.72
2023-05-17T07:59:02.740Z,76331.03
2023-05-17T08:01:31.946Z,76341.22
2023-05-17T08:03:59.771Z,76343.28
2023-05-17T08:06:28.570Z,76349.38
2023-05-17T08:08:57.506Z,76355.50
2023-05-17T08:11:25.628Z,76355.50
2023-05-17T08:13:55.479Z,76369.78
2023-05-17T08:16:23.269Z,76371.81
2023-05-17T08:18:53.334Z,76371.81
2023-05-17T08:21:23.515Z,76371.81
2023-05-17T08:23:51.859Z,76375.91
2023-05-17T08:26:19.882Z,76386.09
2023-05-17T08:28:47.769Z,76394.25
2023-05-17T08:31:15.530Z,76392.22
2023-05-17T08:33:44.557Z,76398.31
2023-05-17T08:36:13.791Z,76398.31
2023-05-17T08:38:41.660Z,76394.25
2023-05-17T08:41:10.824Z,76392.22
2023-05-17T08:43:38.914Z,76398.31
2023-05-17T08:46:07.226Z,76398.31
2023-05-17T08:48:41.766Z,76390.16
2023-05-17T08:51:11.665Z,76384.06
2023-05-17T08:53:42.513Z,76373.84
2023-05-17T08:56:12.964Z,76379.97
2023-05-17T08:58:55.320Z,76369.78
2023-05-17T09:01:26.804Z,76363.66
2023-05-17T09:03:56.186Z,76359.59
2023-05-17T09:06:25.419Z,76361.63
2023-05-17T09:08:55.737Z,76371.81
2023-05-17T09:11:28.645Z,76363.66
2023-05-17T09:14:00.903Z,76367.75
2023-05-17T09:16:29.641Z,76357.53
2023-05-17T09:18:59.222Z,76367.75
2023-05-17T09:21:29.770Z,76359.59
2023-05-17T09:24:07.060Z,76369.78
2023-05-17T09:26:40.374Z,76382.00
2023-05-17T09:29:11.829Z,76379.97
2023-05-17T09:31:40.610Z,76379.97
2023-05-17T09:34:09.158Z,76375.91
2023-05-17T09:36:38.565Z,76375.91
2023-05-17T09:39:12.100Z,76375.91
2023-05-17T09:41:45.391Z,76371.81
2023-05-17T09:44:14.795Z,76394.25
2023-05-17T09:46:43.937Z,76400.38
2023-05-17T09:49:11.765Z,76371.81
2023-05-17T09:51:42.532Z,76382.00
2023-05-17T09:54:12.560Z,76379.97
2023-05-17T09:56:41.125Z,76369.78
2023-05-17T09:59:13.306Z,76355.50
2023-05-17T10:01:42.348Z,76345.31
2023-05-17T10:04:11.269Z,76357.53
2023-05-17T10:09:15.647Z,76365.69
2023-05-17T10:11:47.153Z,76375.91
2023-05-17T10:14:23.392Z,76392.22
2023-05-17T10:16:53.348Z,76392.22
2023-05-17T10:19:22.404Z,76404.44
2023-05-17T10:21:54.829Z,76404.44
2023-05-17T10:24:26.433Z,76404.44
2023-05-17T10:26:55.270Z,76400.38
2023-05-17T10:29:24.919Z,76400.38
2023-05-17T10:31:53.915Z,76394.25
2023-05-17T10:34:22.412Z,76379.97
2023-05-17T10:36:51.082Z,76384.06
2023-05-17T10:39:19.992Z,76384.06
2023-05-17T10:41:55.754Z,76408.53
2023-05-17T10:44:35.661Z,76408.53
2023-05-17T10:47:04.009Z,76412.59
2023-05-17T10:49:33.699Z,76420.75
2023-05-17T10:52:13.082Z,76424.84
2023-05-17T10:54:45.578Z,76412.59
2023-05-17T10:57:23.987Z,76420.75
2023-05-17T10:59:59.830Z,76414.63
2023-05-17T11:02:29.549Z,76416.69
2023-05-17T11:04:58.010Z,76412.59
2023-05-17T11:07:29.597Z,76420.75
2023-05-17T11:10:05.919Z,76418.72
2023-05-17T11:12:40.398Z,76414.63
2023-05-17T11:15:10.694Z,76416.69
2023-05-17T11:17:50.948Z,76414.63
2023-05-17T11:20:34.420Z,76416.69
2023-05-17T11:23:05.204Z,76400.38
2023-05-17T11:25:35.886Z,76410.56
2023-05-17T11:28:09.741Z,76402.41
2023-05-17T11:30:43.473Z,76412.59
2023-05-17T11:33:21.098Z,76412.59
2023-05-17T11:36:06.232Z,76404.44
2023-05-17T11:38:35.300Z,76400.38
2023-05-17T11:43:51.207Z,76400.38
2023-05-17T11:46:21.454Z,76408.53
2023-05-17T11:48:51.771Z,76394.25
2023-05-17T11:51:23.902Z,76384.06
2023-05-17T11:53:55.419Z,76367.75
2023-05-17T11:56:32.428Z,76355.50
2023-05-17T11:59:12.114Z,76371.81
2023-05-17T12:01:47.482Z,76363.66
2023-05-17T12:04:16.198Z,76382.00
2023-05-17T12:06:45.884Z,76386.09
2023-05-17T12:09:17.748Z,76375.91
2023-05-17T12:11:46.334Z,76379.97
2023-05-17T12:14:18.438Z,76394.25
2023-05-17T12:16:51.033Z,76398.31
2023-05-17T12:19:20.169Z,76394.25
2023-05-17T12:21:48.229Z,76394.25
2023-05-17T12:24:16.272Z,76402.41
2023-05-17T12:26:45.718Z,76402.41
2023-05-17T12:29:14.888Z,76404.44
2023-05-17T12:31:46.607Z,76412.59
2023-05-17T12:34:16.736Z,76410.56
2023-05-17T12:36:45.660Z,76416.69
2023-05-17T12:39:15.673Z,76418.72
2023-05-17T12:41:44.728Z,76406.47
2023-05-17T12:44:16.409Z,76410.56
2023-05-17T12:46:50.452Z,76410.56
2023-05-17T12:49:18.338Z,76408.53
2023-05-17T12:51:47.209Z,76408.53
2023-05-17T12:54:17.057Z,76408.53
2023-05-17T12:56:46.479Z,76408.53
2023-05-17T12:59:17.064Z,76408.53
2023-05-17T13:01:47.877Z,76410.56
2023-05-17T13:04:19.443Z,76406.47
2023-05-17T13:06:48.195Z,76410.56
2023-05-17T13:09:18.362Z,76408.53
2023-05-17T13:11:51.757Z,76416.69
2023-05-17T13:14:34.978Z,76418.72
2023-05-17T13:17:05.516Z,76420.75
2023-05-17T13:19:36.890Z,76420.75
2023-05-17T13:22:05.938Z,76428.91
2023-05-17T13:24:35.712Z,76424.84
2023-05-17T13:27:04.238Z,76432.97
2023-05-17T13:29:39.598Z,76441.16
2023-05-17T13:32:11.454Z,76437.06
2023-05-17T13:34:40.104Z,76441.16
2023-05-17T13:37:11.533Z,76432.97
2023-05-17T13:39:40.451Z,76437.06
2023-05-17T13:42:08.390Z,76439.09
2023-05-17T13:44:36.255Z,76432.97
2023-05-17T13:47:04.094Z,76430.94
2023-05-17T13:49:33.309Z,76430.94
2023-05-17T13:52:01.399Z,76426.88
2023-05-17T13:54:29.307Z,76424.84
2023-05-17T13:56:57.616Z,76424.84
2023-05-17T13:59:25.539Z,76416.69
2023-05-17T14:01:53.807Z,76416.69
2023-05-17T14:04:22.670Z,76408.53
2023-05-17T14:06:54.922Z,76424.84
2023-05-17T14:09:23.046Z,76437.06
2023-05-17T14:11:51.057Z,76439.09
2023-05-17T14:14:18.872Z,76445.22
2023-05-17T14:16:46.776Z,76453.38
2023-05-17T14:19:14.659Z,76461.53
2023-05-17T14:21:42.494Z,76467.66
2023-05-17T14:24:11.654Z,76469.69
2023-05-17T14:26:39.508Z,76469.69
2023-05-17T14:29:07.582Z,76475.81
2023-05-17T14:31:35.613Z,76477.84
2023-05-17T14:34:03.897Z,76477.84
2023-05-17T14:36:31.948Z,76477.84
2023-05-17T14:39:00.311Z,76473.75
2023-05-17T14:41:29.416Z,76473.75
2023-05-17T14:43:57.174Z,76486.00
2023-05-17T14:46:25.204Z,76488.03
2023-05-17T14:48:53.140Z,76479.88
2023-05-17T14:51:20.983Z,76473.75
2023-05-17T14:53:48.953Z,76477.84
2023-05-17T14:56:16.857Z,76473.75
2023-05-17T14:58:46.813Z,76469.69
2023-05-17T15:01:15.376Z,76471.72
2023-05-17T15:03:43.262Z,76469.69
2023-05-17T15:06:11.980Z,76471.72
2023-05-17T15:08:40.705Z,76488.03
2023-05-17T15:11:08.520Z,76488.03
2023-05-17T15:13:36.315Z,76498.22
2023-05-17T15:16:05.988Z,76494.16
2023-05-17T15:18:33.876Z,76496.19
2023-05-17T15:21:03.130Z,76496.19
2023-05-17T15:23:31.091Z,76490.06
2023-05-17T15:25:58.840Z,76500.28
2023-05-17T15:28:26.733Z,76506.38
2023-05-17T15:31:01.691Z,76502.31
2023-05-17T15:33:32.263Z,76502.31
2023-05-17T15:36:00.190Z,76508.44
2023-05-17T15:38:27.980Z,76504.34
2023-05-17T15:41:05.857Z,76506.38
2023-05-17T15:43:34.981Z,76510.47
2023-05-17T15:46:02.841Z,76510.47
2023-05-17T15:48:32.299Z,76508.44
2023-05-17T15:51:00.413Z,76514.53
2023-05-17T15:53:29.451Z,76516.59
2023-05-17T15:55:57.562Z,76518.63
2023-05-17T15:58:27.962Z,76516.59
2023-05-17T16:00:55.866Z,76512.50
2023-05-17T16:03:23.681Z,76516.59
2023-05-17T16:05:52.970Z,76518.63
2023-05-17T16:08:21.304Z,76518.63
2023-05-17T16:10:49.166Z,76526.78
2023-05-17T16:13:17.583Z,76534.94
2023-05-17T16:15:45.421Z,76530.84
2023-05-17T16:18:15.072Z,76534.94
2023-05-17T16:20:43.517Z,76530.84
2023-05-17T16:23:13.222Z,76536.97
2023-05-17T16:25:41.558Z,76543.09
2023-05-17T16:28:09.455Z,76551.25
2023-05-17T16:30:37.570Z,76551.25
2023-05-17T16:33:08.197Z,76543.09
2023-05-17T16:35:36.490Z,76543.09
2023-05-17T16:38:04.691Z,76539.00
2023-05-17T16:40:34.096Z,76543.09
2023-05-17T16:43:02.142Z,76534.94
2023-05-17T16:45:30.164Z,76539.00
2023-05-17T16:47:58.227Z,76543.09
2023-05-17T16:50:26.169Z,76549.22
2023-05-17T16:52:54.072Z,76541.06
2023-05-17T16:55:21.974Z,76539.00
2023-05-17T16:57:51.411Z,76547.16
2023-05-17T17:00:19.995Z,76541.06
2023-05-17T17:02:47.855Z,76545.13
2023-05-17T17:05:16.027Z,76539.00
2023-05-17T17:07:45.913Z,76539.00
2023-05-17T17:10:14.027Z,76543.09
2023-05-17T17:12:41.904Z,76543.09
2023-05-17T17:15:11.866Z,76541.06
2023-05-17T17:17:39.765Z,76545.13
2023-05-17T17:20:09.176Z,76539.00
2023-05-17T17:22:37.013Z,76539.00
2023-05-17T17:25:05.502Z,76539.00
2023-05-17T17:27:33.360Z,76530.84
2023-05-17T17:30:01.161Z,76530.84
2023-05-17T17:32:30.478Z,76534.94
2023-05-17T17:34:58.447Z,76536.97
2023-05-17T17:37:26.312Z,76543.09
2023-05-17T17:39:54.090Z,76543.09
2023-05-17T17:42:21.952Z,76551.25
2023-05-17T17:44:50.141Z,76551.25
2023-05-17T17:47:17.987Z,76559.41
2023-05-17T17:49:47.188Z,76559.41
2023-05-17T17:52:14.969Z,76551.25
2023-05-17T17:54:45.206Z,76557.38
2023-05-17T17:57:13.853Z,76555.31
2023-05-17T17:59:41.676Z,76553.28
2023-05-17T18:02:09.489Z,76555.31
2023-05-17T18:04:37.360Z,76555.31
2023-05-17T18:07:06.971Z,76557.38
2023-05-17T18:09:34.769Z,76561.44
2023-05-17T18:12:02.615Z,76559.41
2023-05-17T18:14:30.441Z,76567.56
2023-05-17T18:16:58.250Z,76563.47
2023-05-17T18:19:26.237Z,76569.59
2023-05-17T18:21:54.200Z,76571.63
2023-05-17T18:24:23.377Z,76579.78
2023-05-17T18:26:51.180Z,76583.88
2023-05-17T18:29:19.269Z,76587.94
2023-05-17T18:31:47.469Z,76587.94
2023-05-17T18:34:15.593Z,76592.03
2023-05-17T18:36:43.400Z,76596.09
2023-05-17T18:39:11.675Z,76604.28
2023-05-17T18:41:41.080Z,76604.28
2023-05-17T18:44:08.883Z,76608.34
2023-05-17T18:46:36.976Z,76610.38
2023-05-17T18:49:05.530Z,76614.47
2023-05-17T18:51:33.735Z,76618.53
2023-05-17T18:54:01.680Z,76616.50
2023-05-17T18:56:30.487Z,76616.50
2023-05-17T18:59:00.104Z,76626.69
2023-05-17T19:01:28.669Z,76620.56
2023-05-17T19:03:56.724Z,76622.63
2023-05-17T19:06:25.274Z,76628.72
2023-05-17T19:08:53.162Z,76622.63
2023-05-17T19:11:22.624Z,76624.66
2023-05-17T19:13:50.585Z,76628.72
2023-05-17T19:16:19.732Z,76628.72
2023-05-17T19:18:47.674Z,76626.69
2023-05-17T19:21:15.628Z,76620.56
2023-05-17T19:23:43.549Z,76624.66
2023-05-17T19:26:11.385Z,76624.66
2023-05-17T19:28:40.002Z,76626.69
2023-05-17T19:31:10.803Z,76628.72
2023-05-17T19:33:40.249Z,76628.72
2023-05-17T19:36:08.158Z,76622.63
2023-05-17T19:38:36.068Z,76628.72
2023-05-17T19:41:04.092Z,76632.81
2023-05-17T19:43:32.940Z,76632.81
2023-05-17T19:46:00.800Z,76626.69
2023-05-17T19:48:28.664Z,76628.72
2023-05-17T19:50:57.813Z,76624.66
2023-05-17T19:53:26.080Z,76630.78
2023-05-17T19:55:54.977Z,76622.63
2023-05-17T19:58:23.964Z,76624.66
2023-05-17T20:00:51.835Z,76620.56
2023-05-17T20:03:20.389Z,76626.69
2023-05-17T20:05:48.267Z,76628.72
2023-05-17T20:08:18.174Z,76630.78
2023-05-17T20:10:46.030Z,76626.69
2023-05-17T20:13:13.985Z,76628.72
2023-05-17T20:15:41.834Z,76630.78
2023-05-17T20:18:09.953Z,76626.69
2023-05-17T20:20:37.855Z,76620.56
2023-05-17T20:23:07.336Z,76624.66
2023-05-17T20:25:37.994Z,76632.81
2023-05-17T20:28:07.946Z,76624.66
2023-05-17T20:30:36.025Z,76622.63
2023-05-17T20:33:03.910Z,76628.72
2023-05-17T20:35:31.781Z,76626.69
2023-05-17T20:37:59.715Z,76630.78
2023-05-17T20:40:27.865Z,76620.56
2023-05-17T20:42:58.724Z,76622.63
2023-05-17T20:45:29.671Z,76616.50
2023-05-17T20:47:57.888Z,76620.56
2023-05-17T20:50:25.843Z,76618.53
2023-05-17T20:52:53.708Z,76616.50
2023-05-17T20:55:21.588Z,76620.56
2023-05-17T20:57:49.462Z,76610.38
2023-05-17T21:00:20.835Z,76612.41
2023-05-17T21:02:48.720Z,76612.41
2023-05-17T21:05:16.661Z,76616.50
2023-05-17T21:07:46.817Z,76616.50
2023-05-17T21:10:14.715Z,76608.34
2023-05-17T21:12:42.493Z,76616.50
2023-05-17T21:15:17.099Z,76612.41
2023-05-17T21:18:00.072Z,76618.53
2023-05-17T21:20:28.110Z,76616.50
2023-05-17T21:22:55.918Z,76616.50
2023-05-17T21:25:24.031Z,76620.56
2023-05-17T21:27:51.978Z,76612.41
2023-05-17T21:30:19.876Z,76610.38
2023-05-17T21:32:47.819Z,76612.41
2023-05-17T21:35:17.135Z,76614.47
2023-05-17T21:37:44.913Z,76610.38
2023-05-17T21:40:13.177Z,76612.41
2023-05-17T21:42:41.068Z,76610.38
2023-05-17T21:45:09.596Z,76612.41
2023-05-17T21:47:37.434Z,76608.34
2023-05-17T21:50:06.040Z,76612.41
2023-05-17T21:52:35.511Z,76608.34
2023-05-17T21:55:03.388Z,76610.38
2023-05-17T21:57:33.002Z,76612.41
2023-05-17T22:00:00.837Z,76606.31
2023-05-17T22:02:28.788Z,76604.28
2023-05-17T22:04:56.903Z,76608.34
2023-05-17T22:07:24.673Z,76604.28
2023-05-17T22:09:54.293Z,76608.34
2023-05-17T22:12:25.595Z,76604.28
2023-05-17T22:14:54.266Z,76602.22
2023-05-17T22:17:35.004Z,76604.28
2023-05-17T22:20:11.044Z,76598.16
2023-05-17T22:22:38.918Z,76604.28
2023-05-17T22:25:09.714Z,76598.16
2023-05-17T22:27:37.493Z,76598.16
2023-05-17T22:30:06.475Z,76596.09
2023-05-17T22:32:34.393Z,76600.19
2023-05-17T22:35:02.191Z,76596.09
2023-05-17T22:37:30.295Z,76598.16
2023-05-17T22:39:58.050Z,76596.09
2023-05-17T22:42:27.197Z,76592.03
2023-05-17T22:44:55.031Z,76596.09
2023-05-17T22:47:26.825Z,76592.03
2023-05-17T22:49:54.666Z,76592.03
2023-05-17T22:52:22.544Z,76592.03
2023-05-17T22:54:50.565Z,76592.03
2023-05-17T22:57:18.380Z,76587.94
2023-05-17T22:59:47.525Z,76579.78
2023-05-17T23:02:15.377Z,76583.88
2023-05-17T23:04:45.972Z,76592.03
2023-05-17T23:07:15.010Z,76579.78
2023-05-17T23:09:42.822Z,76579.78
2023-05-17T23:12:14.260Z,76575.72
2023-05-17T23:14:44.781Z,76575.72
2023-05-17T23:17:14.430Z,76575.72
2023-05-17T23:19:42.596Z,76571.63
2023-05-17T23:22:10.796Z,76567.56
2023-05-17T23:24:39.368Z,76563.47
2023-05-17T23:27:09.983Z,76563.47
2023-05-17T23:29:41.380Z,76555.31
2023-05-17T23:32:09.682Z,76559.41
2023-05-17T23:34:38.883Z,76563.47
2023-05-17T23:37:06.701Z,76559.41
2023-05-17T23:39:34.761Z,76555.31
2023-05-17T23:42:02.555Z,76551.25
2023-05-17T23:44:30.647Z,76555.31
2023-05-17T23:46:59.945Z,76547.16
2023-05-17T23:49:27.735Z,76549.22
2023-05-17T23:51:57.942Z,76545.13
2023-05-17T23:54:26.044Z,76547.16
2023-05-17T23:56:53.814Z,76547.16
2023-05-17T23:59:24.285Z,76547.16
